Saturday, December 20, 2014
08:42 UTC
  |  Log In   |  Register Free
Airport Search:

Live Oak County Airport
(8T6)

Live Oak County Airport Diagram
No Airport Diagram Available

FAA data valid effective November 13, 2014 - January 08, 2015 (unless otherwise noted).

 
 
 
 
 
 
 
 
 
 
 
 
 
 

Current Aviation Weather for Live Oak County Airport (8T6)

METAR data is unavailable for 8T6. The nearest METAR location is at KBEA (17.2 nm SE from 8T6).

The most recent METAR observation for KBEA was updated at: 2111
METAR Summary (Translated METAR)
KBEA
182055Z AUTO 03008KT 7SM -RA SCT011 BKN017 OVC027 20/17 A2998 RMK AO2 T01990174
(17.2 nm SE from 8T6)
KNOG
182111Z AUTO 01011KT 10SM -RA BKN024 BKN033 OVC040 22/19 A2997 RMK AO2 RAB05 P0000 T02220194 $
(27.9 nm SE from 8T6)
TAF Summary (Translated TAF)
KALI
(39.3 nm SW from KBEA)
200529Z 2006/2106 02007KT P6SM OVC018 TEMPO 2009/2013 BKN015 FM201600 02010KT P6SM BKN020 BKN080 FM210200 02004KT P6SM SCT030 BKN080
  Airport Weather Conditions for 8T6

Current weather conditions are
not available for 8T6


The nearest NOAA weather station
is at BEA, (17.2 nm SE from 8T6)
  
 Current Weather at BEA
52° F
Overcast
Northeast winds at 11.5 mph
BEA NOAA Radar

Pressure: 30.14 in
Humidity: 91%
Wind: Northeast at 11.5 MPH (10 KT)
Dew Point: 49.3°F
Visibility: 10.00 mi


Airport Weather Forecast for 8T6

Translated METAR and TAF for KBEA
Translated METAR for KBEA (0843 UTC 20 December 2014)
found at http://aviationweather.gov/adds/metars/
 
METAR text: KBEA 200835Z AUTO 04009G16KT 10SM OVC009 11/10 A3014 RMK AO2 T01060096
Conditions at: KBEA (BEEVILLE MUNI , TX, US) observed 0835 UTC 20 December 2014
Temperature: 10.6°C (51°F)
Dewpoint: 9.6°C (49°F) [RH = 94%]
Pressure (altimeter): 30.14 inches Hg (1020.7 mb)
Winds: from the NE (40 degrees) at 10 MPH (9 knots; 4.7 m/s)
gusting to 18 MPH (16 knots; 8.3 m/s)
Visibility: 10 or more miles (16+ km)
Ceiling: 900 feet AGL
Clouds: overcast cloud deck at 900 feet AGL
Weather: automated observation with no human augmentation;
there may or may not be significant weather present at this time
Translated TAF for KBEA

There is no translated TAF available for this airport

Find All Airport Services Find A Hotel Find A Rental Car Find A Golf Course Find A Restaurant $100 Hamburger



FBO's on the Field
FBO Company Facility Photos Services Transportation Aviation Fuel Prices: Prices include tax
Catering Weather Repair Courtesy Rental Type 100LL JetA JetA+ MOGAS 8087
 
Live Oak Co. Airport

This FBO has not yet been rated
FS:Avfuel
Last Updated: Dec-11
Login to update fuel prices
SS:
Contact Live Oak Co. AirportMore FBO Information
 
Add another FBO Facility Photos Catering Weather Repair Courtesy Rental Type 100LL JetA JetA+ MOGAS 8087
Services Transportation Aviation Fuel Prices: Prices include tax


model-print
model-print
model-print
model-print